createdAt,value
2017-04-07T16:32:05.938Z,49.20
2017-04-07T16:33:04.345Z,48.50
2017-04-07T16:34:02.706Z,48.40
2017-04-07T16:35:00.364Z,48.30
2017-04-07T16:35:58.723Z,48.40
2017-04-07T16:36:56.371Z,48.30
2017-04-07T16:37:54.044Z,48.70
2017-04-07T16:38:51.653Z,48.20
2017-04-07T16:39:49.488Z,48.00
2017-04-07T16:40:47.064Z,48.30
2017-04-07T16:41:44.662Z,48.30
2017-04-07T16:42:42.232Z,47.80
2017-04-07T16:43:39.837Z,47.90
2017-04-07T16:44:37.432Z,47.80
2017-04-07T16:45:35.020Z,48.30
2017-04-07T16:46:32.614Z,48.40
2017-04-07T16:47:30.223Z,47.90
2017-04-07T16:48:27.837Z,48.90
2017-04-07T16:49:25.437Z,48.40
2017-04-07T16:50:22.980Z,48.90
2017-04-07T16:51:20.542Z,49.20
2017-04-07T16:52:18.121Z,49.50
2017-04-07T16:53:16.224Z,49.90
2017-04-07T16:54:13.788Z,50.50
2017-04-07T16:55:11.356Z,50.40
2017-04-07T16:56:08.927Z,50.20
2017-04-07T16:57:06.497Z,50.20
2017-04-07T16:58:04.067Z,50.20
2017-04-07T16:59:01.622Z,50.20
2017-04-07T16:59:59.165Z,50.10
2017-04-07T17:00:56.792Z,50.10
2017-04-07T17:01:54.382Z,50.10
2017-04-07T17:02:52.713Z,50.30
2017-04-07T17:03:50.291Z,50.20
2017-04-07T17:04:48.007Z,50.40
2017-04-07T17:05:45.666Z,50.40
2017-04-07T17:06:43.261Z,50.00
2017-04-07T17:07:40.820Z,50.20
2017-04-07T17:08:38.369Z,50.20
2017-04-07T17:09:36.713Z,50.00
2017-04-07T17:10:34.262Z,50.00
2017-04-07T17:11:31.984Z,50.20
2017-04-07T17:12:29.635Z,50.20
2017-04-07T17:13:27.182Z,50.10
2017-04-07T17:14:25.978Z,50.20
2017-04-07T17:15:23.549Z,50.00
2017-04-07T17:16:21.093Z,49.90
2017-04-07T17:17:18.672Z,49.70
2017-04-07T17:18:16.717Z,50.10
2017-04-07T17:19:14.269Z,50.10
2017-04-07T17:20:11.880Z,50.00
2017-04-07T17:21:10.461Z,49.90
2017-04-07T17:22:08.876Z,50.00
2017-04-07T17:23:07.196Z,50.00
2017-04-07T17:24:05.256Z,50.00
2017-04-07T17:25:04.563Z,49.70
2017-04-07T17:26:03.260Z,49.70
2017-04-07T17:27:01.601Z,49.60
2017-04-07T17:27:59.140Z,49.60
2017-04-07T17:28:56.969Z,49.60
2017-04-07T17:29:54.624Z,49.60
2017-04-07T17:30:52.177Z,49.50
2017-04-07T17:31:49.988Z,49.30
2017-04-07T17:32:48.348Z,49.30
2017-04-07T17:33:46.184Z,49.20
2017-04-07T17:34:43.727Z,49.80
2017-04-07T17:35:41.741Z,49.30
2017-04-07T17:36:39.281Z,49.30
2017-04-07T17:37:36.829Z,49.30
2017-04-07T17:38:35.209Z,49.30
2017-04-07T17:39:32.814Z,49.20
2017-04-07T17:40:31.116Z,49.20
2017-04-07T17:41:28.717Z,48.70
2017-04-07T17:42:26.272Z,49.20
2017-04-07T17:43:23.824Z,49.10
2017-04-07T17:44:21.435Z,49.10
2017-04-07T17:45:18.991Z,49.10
2017-04-07T17:46:16.568Z,49.30
2017-04-07T17:47:14.251Z,49.70
2017-04-07T17:48:12.213Z,49.00
2017-04-07T17:49:09.918Z,49.00
2017-04-07T17:50:07.496Z,49.50
2017-04-07T17:51:05.081Z,50.10
2017-04-07T17:52:03.571Z,49.00
2017-04-07T17:53:01.200Z,48.90
2017-04-07T17:53:58.785Z,49.00
2017-04-07T17:54:56.545Z,49.10
2017-04-07T17:55:54.196Z,48.90
2017-04-07T17:56:51.757Z,48.80
2017-04-07T17:57:49.325Z,48.70
2017-04-07T17:58:46.927Z,48.60
2017-04-07T17:59:44.546Z,48.60
2017-04-07T18:00:42.163Z,48.60
2017-04-07T18:01:39.740Z,48.50
2017-04-07T18:02:37.461Z,48.60
2017-04-07T18:03:36.105Z,48.60
2017-04-07T18:04:34.432Z,48.50
2017-04-07T18:05:32.066Z,48.80
2017-04-07T18:06:29.694Z,48.60
2017-04-07T18:07:27.288Z,48.50
2017-04-07T18:08:24.844Z,48.50
2017-04-07T18:09:22.438Z,48.50
2017-04-07T18:10:20.045Z,48.10
2017-04-07T18:11:17.623Z,48.30
2017-04-07T18:12:15.192Z,47.80
2017-04-07T18:13:13.531Z,48.30
2017-04-07T18:14:11.935Z,48.30
2017-04-07T18:15:09.570Z,48.30
2017-04-07T18:16:07.145Z,48.30
2017-04-07T18:17:06.010Z,48.20
2017-04-07T18:18:03.577Z,48.50
2017-04-07T18:19:01.419Z,48.30
2017-04-07T18:19:58.997Z,49.40
2017-04-07T18:20:56.571Z,48.40
2017-04-07T18:21:54.132Z,48.30
2017-04-07T18:22:52.151Z,48.20
2017-04-07T18:23:49.766Z,48.50
2017-04-07T18:24:47.419Z,48.70
2017-04-07T18:25:46.480Z,48.40
2017-04-07T18:26:44.085Z,48.40
2017-04-07T18:27:41.717Z,48.50
2017-04-07T18:28:39.817Z,48.30
2017-04-07T18:29:39.183Z,48.20
2017-04-07T18:30:36.832Z,48.40
2017-04-07T18:31:35.179Z,48.50
2017-04-07T18:32:32.880Z,48.40
2017-04-07T18:33:30.824Z,48.30
2017-04-07T18:34:29.154Z,48.70
2017-04-07T18:35:26.729Z,48.70
2017-04-07T18:36:25.106Z,48.50
2017-04-07T18:37:22.751Z,48.50
2017-04-07T18:38:20.374Z,48.40
2017-04-07T18:39:18.748Z,48.60
2017-04-07T18:40:16.348Z,48.60
2017-04-07T18:41:13.925Z,48.30
2017-04-07T18:43:10.224Z,48.20
2017-04-07T18:44:08.552Z,48.40
2017-04-07T18:45:06.125Z,48.30
2017-04-07T18:46:03.706Z,48.40
2017-04-07T18:47:02.164Z,48.30
2017-04-07T18:47:59.969Z,48.20
2017-04-07T18:48:57.554Z,48.30
2017-04-07T18:49:55.153Z,48.40
2017-04-07T18:51:10.806Z,48.30
2017-04-07T18:52:08.371Z,49.30
2017-04-07T18:53:06.725Z,48.40
2017-04-07T18:54:04.264Z,48.30
2017-04-07T18:55:01.888Z,48.40
2017-04-07T18:55:59.457Z,48.10
2017-04-07T18:56:57.172Z,48.00
